Time;durP1;ratioP1;P1;durP2;ratioP2;P2;SDS_P1;SDS_P2;PMS_P1;PMS_P2;Temp;Humidity;BMP_temperature;BMP_pressure;BME280_temperature;BME280_humidity;BME280_pressure;Samples;Min_cycle;Max_cycle;Signal;HPM_P1;HPM_P2
2023/01/16 00:01:15;;;;;;;;;;;;;;;6.56;83.47;99652.81;5045442;28;19967;-50
2023/01/16 00:03:40;;;;;;;;;;;;;;;6.57;83.63;99658.78;5043080;28;19929;-51
2023/01/16 00:06:05;;;;;;;;;;;;;;;6.55;83.36;99648.53;5043304;28;20014;-49
2023/01/16 00:08:30;;;;;;;;;;;;;;;6.54;83.64;99635.72;5042784;28;19928;-46
2023/01/16 00:10:56;;;;;;;;;;;;;;;6.57;83.34;99635.81;5043349;28;20916;-48
2023/01/16 00:13:21;;;;;;;;;;;;;;;6.58;83.32;99634.97;5043726;28;19967;-50
2023/01/16 00:15:47;;;;;;;;;;;;;;;6.57;83.43;99639.22;5043227;28;20072;-50
2023/01/16 00:18:13;;;;;;;;;;;;;;;6.56;83.15;99629.81;5043255;28;19975;-48
2023/01/16 00:20:38;;;;;;;;;;;;;;;6.56;83.18;99624.72;5044695;28;20361;-52
2023/01/16 00:23:03;;;;;;;;;;;;;;;6.54;82.89;99625.50;5046891;28;19929;-48
2023/01/16 00:25:28;;;;;;;;;;;;;;;6.54;83.03;99625.50;5035114;28;19924;-50
2023/01/16 00:27:54;;;;;;;;;;;;;;;6.51;82.62;99621.19;5042247;28;20325;-46
2023/01/16 00:30:19;;;;;;;;;;;;;;;6.51;82.85;99626.28;5045289;28;19921;-49
2023/01/16 00:32:44;;;;;;;;;;;;;;;6.47;83.00;99609.16;5042535;28;19925;-50
2023/01/16 00:35:10;;;;;;;;;;;;;;;6.45;82.81;99606.56;5043307;28;19924;-48
2023/01/16 00:37:35;;;;;;;;;;;;;;;6.45;82.69;99610.81;5042898;28;20373;-51
2023/01/16 00:40:00;;;;;;;;;;;;;;;6.45;82.60;99616.78;5043369;28;19931;-49
2023/01/16 00:42:25;;;;;;;;;;;;;;;6.44;82.65;99611.66;5043655;28;19955;-51
2023/01/16 00:44:51;;;;;;;;;;;;;;;6.42;82.75;99605.63;5026790;28;20420;-48
2023/01/16 00:47:16;;;;;;;;;;;;;;;6.40;82.92;99610.69;5042193;28;19982;-52
2023/01/16 00:49:41;;;;;;;;;;;;;;;6.38;83.04;99602.16;5044022;28;19924;-47
2023/01/16 00:52:06;;;;;;;;;;;;;;;6.38;83.10;99593.63;5042252;28;19978;-48
2023/01/16 00:54:31;;;;;;;;;;;;;;;6.37;82.86;99600.44;5043033;28;20062;-48
2023/01/16 00:56:57;;;;;;;;;;;;;;;6.35;82.95;99586.75;5042528;28;19927;-51
2023/01/16 00:59:22;;;;;;;;;;;;;;;6.34;83.02;99579.91;5042569;28;19936;-50
2023/01/16 01:01:47;;;;;;;;;;;;;;;6.32;82.96;99576.47;5042874;28;19920;-50
2023/01/16 01:04:13;;;;;;;;;;;;;;;6.30;82.89;99573.00;5043142;28;19960;-47
2023/01/16 01:06:38;;;;;;;;;;;;;;;6.29;82.77;99563.63;5042605;28;20390;-51
2023/01/16 01:09:04;;;;;;;;;;;;;;;6.28;82.81;99558.47;5041278;28;19940;-51
2023/01/16 01:11:29;;;;;;;;;;;;;;;6.27;82.96;99559.31;5043224;28;19929;-51
2023/01/16 01:13:54;;;;;;;;;;;;;;;6.24;82.97;99556.66;5043134;28;20381;-51
2023/01/16 01:16:20;;;;;;;;;;;;;;;6.24;82.75;99554.13;5042926;28;20305;-49
2023/01/16 01:18:45;;;;;;;;;;;;;;;6.23;83.08;99552.41;5041894;28;19970;-49
2023/01/16 01:21:10;;;;;;;;;;;;;;;6.25;82.73;99550.72;5042676;28;19921;-49
2023/01/16 01:23:35;;;;;;;;;;;;;;;6.25;82.90;99545.63;5042465;28;19928;-48
2023/01/16 01:26:08;;;;;;;;;;;;;;;6.23;82.83;99537.94;5042711;28;19928;-49
2023/01/16 01:28:33;;;;;;;;;;;;;;;6.21;82.74;99534.50;5041491;28;19916;-49
2023/01/16 01:31:01;;;;;;;;;;;;;;;6.18;82.59;99524.19;5042669;28;19925;-49
2023/01/16 01:33:26;;;;;;;;;;;;;;;6.17;82.70;99523.34;5041225;28;19921;-49
2023/01/16 01:35:52;;;;;;;;;;;;;;;6.18;82.66;99514.00;5042598;28;20381;-47
2023/01/16 01:38:17;;;;;;;;;;;;;;;6.16;82.38;99505.44;5041710;28;20289;-50
2023/01/16 01:40:42;;;;;;;;;;;;;;;6.15;82.43;99503.72;5043372;28;19950;-49
2023/01/16 01:43:11;;;;;;;;;;;;;;;6.14;82.44;99507.97;5040583;28;19931;-49
2023/01/16 01:45:36;;;;;;;;;;;;;;;6.11;82.51;99492.56;5040722;28;19925;-50
2023/01/16 01:48:04;;;;;;;;;;;;;;;6.11;82.37;99486.59;5040197;28;19935;-50
2023/01/16 01:50:29;;;;;;;;;;;;;;;6.09;82.51;99478.91;5043293;28;19925;-50
2023/01/16 01:52:57;;;;;;;;;;;;;;;6.09;82.07;99468.72;5042164;28;19921;-51
2023/01/16 01:55:22;;;;;;;;;;;;;;;6.09;82.10;99462.75;5042237;28;19931;-49
2023/01/16 01:57:55;;;;;;;;;;;;;;;6.07;82.05;99459.31;5040351;28;20369;-48
2023/01/16 02:00:21;;;;;;;;;;;;;;;6.05;81.95;99445.63;5042218;28;19971;-46
2023/01/16 02:02:50;;;;;;;;;;;;;;;6.05;81.95;99455.84;5042721;28;19920;-50
2023/01/16 02:05:23;;;;;;;;;;;;;;;6.01;81.92;99446.41;5043186;28;19987;-49
2023/01/16 02:07:48;;;;;;;;;;;;;;;5.99;82.20;99440.38;5043696;28;20250;-49
2023/01/16 02:10:31;;;;;;;;;;;;;;;5.99;82.08;99433.59;5045073;28;19927;-50
2023/01/16 02:12:57;;;;;;;;;;;;;;;5.98;82.08;99436.09;5046577;28;19913;-50
2023/01/16 02:15:22;;;;;;;;;;;;;;;5.96;82.13;99425.88;5045502;28;20356;-48
2023/01/16 02:20:36;;;;;;;;;;;;;;;5.91;81.87;99424.91;5046705;28;19939;-48
2023/01/16 02:23:04;;;;;;;;;;;;;;;5.91;81.92;99413.00;5046606;28;19939;-50
2023/01/16 02:25:57;;;;;;;;;;;;;;;5.90;81.98;99408.69;5045966;28;20011;-50
2023/01/16 02:28:28;;;;;;;;;;;;;;;5.90;82.21;99395.94;5044966;28;19924;-48
2023/01/16 02:31:12;;;;;;;;;;;;;;;5.90;82.01;99392.53;5047012;28;19932;-50
2023/01/16 02:33:52;;;;;;;;;;;;;;;5.88;82.08;99395.06;5046813;28;19928;-48
2023/01/16 02:36:27;;;;;;;;;;;;;;;5.88;81.99;99384.84;5045441;28;19917;-48
2023/01/16 02:39:15;;;;;;;;;;;;;;;5.89;82.12;99371.25;5045605;28;20439;-51
2023/01/16 02:42:03;;;;;;;;;;;;;;;5.87;81.93;99360.13;5042346;28;19920;-49
2023/01/16 02:44:36;;;;;;;;;;;;;;;5.87;82.05;99355.03;5047239;28;20369;-49
2023/01/16 02:47:17;;;;;;;;;;;;;;;5.86;81.89;99343.13;5046973;28;19962;-49
2023/01/16 02:49:42;;;;;;;;;;;;;;;5.85;81.93;99332.88;5047228;28;20340;-49
2023/01/16 02:52:20;;;;;;;;;;;;;;;5.85;81.87;99317.59;5046031;28;19967;-49
2023/01/16 02:54:54;;;;;;;;;;;;;;;5.85;81.86;99315.03;5045481;28;19917;-50
2023/01/16 02:57:21;;;;;;;;;;;;;;;5.84;81.89;99295.47;5046043;28;20431;-50
2023/01/16 02:59:48;;;;;;;;;;;;;;;5.84;81.55;99295.47;5043876;28;19917;-50
2023/01/16 03:02:14;;;;;;;;;;;;;;;5.82;81.83;99290.31;5044596;28;20450;-49
2023/01/16 03:04:44;;;;;;;;;;;;;;;5.82;81.53;99282.66;5045034;28;19940;-46
2023/01/16 03:07:10;;;;;;;;;;;;;;;5.82;81.46;99269.03;5045871;28;19913;-47
2023/01/16 03:09:51;;;;;;;;;;;;;;;5.81;81.61;99272.41;5044114;28;19932;-51
2023/01/16 03:12:28;;;;;;;;;;;;;;;5.80;81.54;99261.34;5046284;28;19936;-50
2023/01/16 03:15:00;;;;;;;;;;;;;;;5.79;81.81;99257.09;5046152;28;20995;-51
2023/01/16 03:17:38;;;;;;;;;;;;;;;5.79;81.63;99251.13;5047104;28;19921;-50
2023/01/16 03:20:10;;;;;;;;;;;;;;;5.78;81.56;99242.63;5046417;28;19955;-48
2023/01/16 03:22:38;;;;;;;;;;;;;;;5.77;81.49;99234.94;5046328;28;19931;-47
2023/01/16 03:25:03;;;;;;;;;;;;;;;5.75;81.61;99227.25;5047226;28;20016;-50
2023/01/16 03:27:44;;;;;;;;;;;;;;;5.75;81.55;99223.84;5046971;28;20350;-47
2023/01/16 03:30:10;;;;;;;;;;;;;;;5.75;81.66;99227.25;5044666;28;19960;-50
2023/01/16 03:32:42;;;;;;;;;;;;;;;5.74;81.48;99209.34;5047582;28;19988;-49
2023/01/16 03:35:10;;;;;;;;;;;;;;;5.74;81.56;99207.66;5046732;28;19920;-50
2023/01/16 03:37:40;;;;;;;;;;;;;;;5.73;81.58;99198.31;5047133;28;19921;-50
2023/01/16 03:40:07;;;;;;;;;;;;;;;5.73;81.64;99193.19;5045744;28;19925;-49
2023/01/16 03:42:35;;;;;;;;;;;;;;;5.73;81.55;99185.56;5046609;28;19916;-51
2023/01/16 03:45:06;;;;;;;;;;;;;;;5.72;81.58;99183.84;5047756;28;20352;-50
2023/01/16 03:47:34;;;;;;;;;;;;;;;5.71;81.50;99182.13;5050819;28;19948;-49
2023/01/16 03:50:03;;;;;;;;;;;;;;;5.69;81.52;99171.00;5049745;28;19924;-50
2023/01/16 03:52:32;;;;;;;;;;;;;;;5.66;81.58;99155.66;5048214;28;20412;-50
2023/01/16 03:55:19;;;;;;;;;;;;;;;5.64;81.61;99137.78;5048564;28;19917;-49
2023/01/16 03:58:04;;;;;;;;;;;;;;;5.64;81.75;99135.25;5037090;28;19923;-47
2023/01/16 04:00:35;;;;;;;;;;;;;;;5.63;81.74;99130.94;5050376;28;20304;-51
2023/01/16 04:03:07;;;;;;;;;;;;;;;5.61;81.60;99122.41;5049156;28;20373;-50
2023/01/16 04:05:43;;;;;;;;;;;;;;;5.60;81.81;99118.16;5050894;28;19920;-49
2023/01/16 04:08:11;;;;;;;;;;;;;;;5.60;81.61;99102.84;5045213;28;19983;-48
2023/01/16 04:10:39;;;;;;;;;;;;;;;5.62;81.69;99102.88;5049204;28;20767;-48
2023/01/16 04:13:06;;;;;;;;;;;;;;;5.59;81.62;99088.38;5047234;28;19974;-46
2023/01/16 04:15:33;;;;;;;;;;;;;;;5.60;81.95;99081.59;5047699;28;20464;-50
2023/01/16 04:17:59;;;;;;;;;;;;;;;5.59;81.76;99078.19;5051152;28;19925;-51
2023/01/16 04:20:25;;;;;;;;;;;;;;;5.61;81.92;99073.97;5046515;28;19931;-49
2023/01/16 04:22:51;;;;;;;;;;;;;;;5.60;81.81;99072.25;5045066;28;20377;-47
2023/01/16 04:25:17;;;;;;;;;;;;;;;5.61;81.92;99052.72;5043387;28;19968;-50
2023/01/16 04:27:42;;;;;;;;;;;;;;;5.60;81.82;99046.75;5030681;28;19917;-50
2023/01/16 04:30:08;;;;;;;;;;;;;;;5.57;81.88;99040.72;5047571;28;19924;-51
2023/01/16 04:32:33;;;;;;;;;;;;;;;5.56;81.84;99031.38;5049105;28;19928;-51
2023/01/16 04:34:58;;;;;;;;;;;;;;;5.55;82.25;99014.34;5050199;28;19923;-51
2023/01/16 04:37:24;;;;;;;;;;;;;;;5.53;82.07;99011.78;5048553;28;19925;-50
2023/01/16 04:39:49;;;;;;;;;;;;;;;5.55;82.28;98996.50;5046608;28;19925;-50
2023/01/16 04:42:15;;;;;;;;;;;;;;;5.53;82.21;98986.28;5046801;28;19928;-49
2023/01/16 04:44:40;;;;;;;;;;;;;;;5.52;82.49;98978.59;5049542;28;19920;-50
2023/01/16 04:47:05;;;;;;;;;;;;;;;5.52;82.68;98968.41;5046371;28;20414;-49
2023/01/16 04:49:30;;;;;;;;;;;;;;;5.51;82.83;98954.78;5048199;28;19925;-49
2023/01/16 04:51:56;;;;;;;;;;;;;;;5.50;83.15;98944.56;5045084;28;20464;-49
2023/01/16 04:54:21;;;;;;;;;;;;;;;5.50;83.28;98942.03;5047815;28;20344;-50
2023/01/16 04:56:46;;;;;;;;;;;;;;;5.50;83.40;98929.28;5049238;28;19929;-50
2023/01/16 04:59:15;;;;;;;;;;;;;;;5.51;83.50;98928.44;5048315;28;19939;-49
2023/01/16 05:01:41;;;;;;;;;;;;;;;5.50;83.34;98925.03;5048663;28;19920;-49
2023/01/16 05:04:07;;;;;;;;;;;;;;;5.54;83.57;98915.75;5047805;28;19935;-47
2023/01/16 05:06:32;;;;;;;;;;;;;;;5.53;83.55;98899.63;5048330;28;19913;-50
2023/01/16 05:08:58;;;;;;;;;;;;;;;5.55;83.71;98891.97;5049232;28;19913;-46
2023/01/16 05:11:23;;;;;;;;;;;;;;;5.56;83.65;98880.94;5047731;28;19920;-51
2023/01/16 05:13:48;;;;;;;;;;;;;;;5.56;83.96;98869.06;5047873;28;20015;-47
2023/01/16 05:16:14;;;;;;;;;;;;;;;5.58;84.00;98861.41;5044249;28;19928;-50
2023/01/16 05:18:39;;;;;;;;;;;;;;;5.59;83.91;98855.50;5048421;28;19939;-49
2023/01/16 05:21:04;;;;;;;;;;;;;;;5.60;84.01;98842.78;5047862;28;19920;-47
2023/01/16 05:23:31;;;;;;;;;;;;;;;5.61;84.03;98836.00;5048059;28;19964;-51
2023/01/16 05:25:56;;;;;;;;;;;;;;;5.60;84.65;98835.13;5047669;28;20423;-49
2023/01/16 05:28:21;;;;;;;;;;;;;;;5.61;84.58;98831.75;5048041;28;19995;-50
2023/01/16 05:30:47;;;;;;;;;;;;;;;5.62;84.61;98817.31;5049243;28;19986;-51
2023/01/16 05:33:13;;;;;;;;;;;;;;;5.64;84.70;98807.97;5046751;28;19913;-48
2023/01/16 05:35:38;;;;;;;;;;;;;;;5.65;84.73;98799.53;5047159;28;19971;-49
2023/01/16 05:38:03;;;;;;;;;;;;;;;5.65;84.82;98790.16;5048880;28;19917;-51
2023/01/16 05:40:28;;;;;;;;;;;;;;;5.67;85.04;98780.00;5046879;28;19925;-49
2023/01/16 05:42:53;;;;;;;;;;;;;;;5.68;85.07;98770.66;5047968;28;19947;-51
2023/01/16 05:45:19;;;;;;;;;;;;;;;5.67;84.92;98764.69;5046828;28;19920;-50
2023/01/16 05:47:44;;;;;;;;;;;;;;;5.66;85.52;98752.78;5047918;28;19920;-50
2023/01/16 05:50:09;;;;;;;;;;;;;;;5.67;85.12;98735.78;5047882;28;20016;-49
2023/01/16 05:52:34;;;;;;;;;;;;;;;5.65;85.31;98731.53;5046582;28;19913;-51
2023/01/16 05:55:00;;;;;;;;;;;;;;;5.67;85.29;98726.44;5048721;28;19964;-49
2023/01/16 05:57:25;;;;;;;;;;;;;;;5.67;85.33;98717.94;5045850;28;19967;-49
2023/01/16 05:59:51;;;;;;;;;;;;;;;5.68;85.28;98720.50;5048695;28;19964;-51
2023/01/16 06:02:17;;;;;;;;;;;;;;;5.67;85.21;98706.03;5047358;28;19923;-48
2023/01/16 06:04:42;;;;;;;;;;;;;;;5.67;85.27;98703.50;5047443;28;19974;-47
2023/01/16 06:07:07;;;;;;;;;;;;;;;5.68;85.22;98701.78;5027716;28;19923;-50
2023/01/16 06:09:33;;;;;;;;;;;;;;;5.66;85.36;98691.59;5029165;28;19954;-49
2023/01/16 06:11:58;;;;;;;;;;;;;;;5.66;85.55;98676.28;5047368;28;20011;-49
2023/01/16 06:14:23;;;;;;;;;;;;;;;5.66;84.99;98683.94;5047489;28;19939;-51
2023/01/16 06:16:49;;;;;;;;;;;;;;;5.68;85.19;98677.16;5048595;28;19952;-51
2023/01/16 06:19:14;;;;;;;;;;;;;;;5.69;85.09;98676.31;5046832;28;19920;-50
2023/01/16 06:21:39;;;;;;;;;;;;;;;5.71;85.34;98682.31;5046110;28;19935;-49
2023/01/16 06:24:05;;;;;;;;;;;;;;;5.73;85.43;98674.66;5047999;28;19924;-49
2023/01/16 06:26:30;;;;;;;;;;;;;;;5.73;85.43;98667.88;5047391;28;19920;-51
2023/01/16 06:28:56;;;;;;;;;;;;;;;5.74;85.37;98653.44;5047414;28;20278;-51
2023/01/16 06:31:21;;;;;;;;;;;;;;;5.74;85.88;98654.28;5045646;28;19917;-49
2023/01/16 06:33:46;;;;;;;;;;;;;;;5.73;86.13;98639.81;5044726;28;20672;-48
2023/01/16 06:36:12;;;;;;;;;;;;;;;5.73;86.38;98642.38;5046591;28;20420;-50
2023/01/16 06:38:37;;;;;;;;;;;;;;;5.73;86.24;98638.97;5047285;28;20370;-51
2023/01/16 06:41:02;;;;;;;;;;;;;;;5.74;86.52;98640.69;5047107;28;19972;-52
2023/01/16 06:43:28;;;;;;;;;;;;;;;5.72;86.58;98619.41;5045675;28;19928;-51
2023/01/16 06:45:53;;;;;;;;;;;;;;;5.72;86.40;98616.88;5043396;28;19916;-50
2023/01/16 06:48:19;;;;;;;;;;;;;;;5.73;86.94;98608.38;5044488;28;19924;-49
2023/01/16 06:50:44;;;;;;;;;;;;;;;5.72;87.52;98604.13;5046030;28;20007;-52
2023/01/16 06:53:10;;;;;;;;;;;;;;;5.70;87.25;98583.69;5047491;28;19962;-52
2023/01/16 06:55:35;;;;;;;;;;;;;;;5.68;87.21;98572.63;5045789;28;20541;-51
2023/01/16 06:58:01;;;;;;;;;;;;;;;5.68;87.50;98556.47;5045989;28;19912;-50
2023/01/16 07:00:26;;;;;;;;;;;;;;;5.68;87.71;98542.03;5045621;28;19925;-51
2023/01/16 07:02:54;;;;;;;;;;;;;;;5.68;87.54;98533.53;5029905;28;19925;-49
2023/01/16 07:05:20;;;;;;;;;;;;;;;5.67;88.05;98527.56;5044247;28;19916;-48
2023/01/16 07:07:45;;;;;;;;;;;;;;;5.67;87.97;98513.97;5043101;28;19920;-48
2023/01/16 07:10:10;;;;;;;;;;;;;;;5.67;88.25;98496.97;5042016;28;19995;-50
2023/01/16 07:12:35;;;;;;;;;;;;;;;5.67;88.34;98499.53;5039391;28;19979;-48
2023/01/16 07:23:18;;;;;;;;;;;;;;;5.62;88.74;98460.38;5048202;28;20384;-50
2023/01/16 07:25:44;;;;;;;;;;;;;;;5.62;88.62;98450.19;5047882;28;19916;-48
2023/01/16 07:28:09;;;;;;;;;;;;;;;5.64;88.74;98446.81;5048015;28;19944;-50
2023/01/16 07:30:34;;;;;;;;;;;;;;;5.64;88.99;98440.84;5045545;28;19998;-50
2023/01/16 07:33:00;;;;;;;;;;;;;;;5.61;88.68;98422.97;5048537;28;20043;-50
2023/01/16 07:35:25;;;;;;;;;;;;;;;5.62;88.94;98419.59;5049246;28;19968;-48
2023/01/16 07:37:52;;;;;;;;;;;;;;;5.62;89.02;98409.38;5045352;28;20043;-52
2023/01/16 07:40:17;;;;;;;;;;;;;;;5.62;89.30;98402.59;5047715;28;19924;-50
2023/01/16 07:42:42;;;;;;;;;;;;;;;5.63;89.26;98400.88;5049620;28;19917;-51
2023/01/16 07:45:08;;;;;;;;;;;;;;;5.62;89.32;98401.75;5050531;28;20377;-51
2023/01/16 07:47:36;;;;;;;;;;;;;;;5.61;89.63;98389.84;5050211;28;19912;-50
2023/01/16 07:50:01;;;;;;;;;;;;;;;5.60;89.56;98390.69;5047102;28;20397;-52
2023/01/16 07:52:27;;;;;;;;;;;;;;;5.60;89.43;98385.59;5048949;28;20018;-52
2023/01/16 07:54:52;;;;;;;;;;;;;;;5.59;89.77;98378.78;5049082;28;20059;-52
2023/01/16 07:57:17;;;;;;;;;;;;;;;5.60;90.06;98372.84;5045018;28;19925;-53
2023/01/16 07:59:43;;;;;;;;;;;;;;;5.59;89.97;98360.94;5048772;28;20016;-53
2023/01/16 08:02:10;;;;;;;;;;;;;;;5.58;90.17;98361.75;5048038;28;19932;-53
2023/01/16 08:04:35;;;;;;;;;;;;;;;5.59;89.68;98348.19;5048902;28;19924;-51
2023/01/16 08:07:00;;;;;;;;;;;;;;;5.58;89.62;98338.81;5047927;28;19927;-45
2023/01/16 08:09:25;;;;;;;;;;;;;;;5.58;89.88;98342.25;5049473;28;19920;-49
2023/01/16 08:11:51;;;;;;;;;;;;;;;5.59;90.32;98332.91;5045684;28;19952;-53
2023/01/16 08:14:16;;;;;;;;;;;;;;;5.56;89.93;98331.16;5048843;28;19921;-51
2023/01/16 08:16:41;;;;;;;;;;;;;;;5.55;90.63;98329.47;5046532;28;20399;-52
2023/01/16 08:19:06;;;;;;;;;;;;;;;5.54;90.68;98304.81;5047276;28;19924;-50
2023/01/16 08:21:32;;;;;;;;;;;;;;;5.55;90.83;98300.56;5047161;28;19923;-47
2023/01/16 08:23:57;;;;;;;;;;;;;;;5.56;90.71;98294.63;5048660;28;19920;-50
2023/01/16 08:26:22;;;;;;;;;;;;;;;5.55;90.79;98293.78;5047993;28;19924;-52
2023/01/16 08:28:48;;;;;;;;;;;;;;;5.55;91.16;98273.38;5028578;28;20363;-53
2023/01/16 08:31:13;;;;;;;;;;;;;;;5.55;91.40;98273.38;5047862;28;19920;-50
2023/01/16 08:33:40;;;;;;;;;;;;;;;5.56;91.37;98256.38;5045488;28;20015;-50
2023/01/16 08:36:06;;;;;;;;;;;;;;;5.58;91.69;98258.13;5048408;28;19958;-52
2023/01/16 08:38:31;;;;;;;;;;;;;;;5.57;91.62;98243.66;5048518;28;19920;-50
2023/01/16 08:40:57;;;;;;;;;;;;;;;5.58;91.74;98241.94;5047686;28;19935;-50
2023/01/16 08:51:44;;;;;;;;;;;;;;;5.64;91.83;98234.34;5042698;28;19936;-51
2023/01/16 08:54:09;;;;;;;;;;;;;;;5.65;91.60;98231.81;5047942;28;20385;-50
2023/01/16 08:56:36;;;;;;;;;;;;;;;5.68;91.87;98230.97;5048561;28;19917;-50
2023/01/16 08:59:02;;;;;;;;;;;;;;;5.69;91.99;98213.97;5048871;28;19928;-49
2023/01/16 09:01:27;;;;;;;;;;;;;;;5.72;91.93;98222.50;5048598;28;19921;-53
2023/01/16 09:03:52;;;;;;;;;;;;;;;5.71;92.09;98215.69;5048111;28;19917;-53
2023/01/16 09:06:17;;;;;;;;;;;;;;;5.72;91.86;98219.94;5046654;28;20035;-52
2023/01/16 09:08:42;;;;;;;;;;;;;;;5.74;92.24;98208.06;5048740;28;20377;-46
2023/01/16 09:13:52;;;;;;;;;;;;;;;5.75;91.80;98211.44;5047834;28;19931;-52
2023/01/16 09:16:19;;;;;;;;;;;;;;;5.76;91.67;98205.50;5046723;28;19921;-53
2023/01/16 09:18:44;;;;;;;;;;;;;;;5.76;91.47;98202.94;5048404;28;19913;-46
2023/01/16 09:21:09;;;;;;;;;;;;;;;5.76;91.62;98195.31;5048484;28;19919;-53
2023/01/16 09:23:34;;;;;;;;;;;;;;;5.77;91.68;98202.13;5047763;28;20008;-52
2023/01/16 09:26:00;;;;;;;;;;;;;;;5.77;91.53;98205.53;5048049;28;19924;-53
2023/01/16 09:28:25;;;;;;;;;;;;;;;5.76;91.33;98202.94;5048080;28;19920;-48
2023/01/16 09:30:51;;;;;;;;;;;;;;;5.76;91.02;98193.59;5045621;28;19927;-51
2023/01/16 09:33:16;;;;;;;;;;;;;;;5.76;90.74;98193.59;5046630;28;20353;-52
2023/01/16 09:35:41;;;;;;;;;;;;;;;5.77;90.80;98189.38;5047243;28;19932;-53
2023/01/16 09:38:07;;;;;;;;;;;;;;;5.76;90.71;98192.75;5047668;28;19975;-52
2023/01/16 09:40:32;;;;;;;;;;;;;;;5.75;90.94;98181.69;5050156;28;19931;-52
2023/01/16 09:46:09;;;;;;;;;;;;;;;5.74;90.42;98169.81;5046780;28;19942;-52
2023/01/16 09:48:47;;;;;;;;;;;;;;;5.75;90.82;98170.66;5047297;28;19954;-53
2023/01/16 09:51:16;;;;;;;;;;;;;;;5.76;90.79;98168.09;5049183;28;19928;-51
2023/01/16 09:59:30;;;;;;;;;;;;;;;5.79;90.78;98168.13;5043713;28;19932;-48
2023/01/16 10:02:02;;;;;;;;;;;;;;;5.82;90.83;98159.63;5044100;28;19917;-48
2023/01/16 10:04:28;;;;;;;;;;;;;;;5.83;90.84;98152.00;5042419;28;20033;-50
2023/01/16 10:07:12;;;;;;;;;;;;;;;5.87;90.74;98158.81;5043529;28;20370;-51
2023/01/16 10:09:45;;;;;;;;;;;;;;;5.87;90.85;98146.06;5040972;28;19925;-52
2023/01/16 10:12:14;;;;;;;;;;;;;;;5.88;90.79;98145.22;5038232;28;20209;-51
2023/01/16 10:14:51;;;;;;;;;;;;;;;5.91;90.42;98140.16;5017385;28;20386;-48
2023/01/16 10:17:16;;;;;;;;;;;;;;;5.92;90.36;98143.56;5041672;28;20648;-52
2023/01/16 10:20:00;;;;;;;;;;;;;;;5.91;90.21;98122.31;5045191;28;19917;-51
2023/01/16 10:22:31;;;;;;;;;;;;;;;5.93;90.15;98119.75;5035041;28;20456;-51
2023/01/16 10:25:03;;;;;;;;;;;;;;;5.96;90.29;98113.81;5039897;28;19966;-53
2023/01/16 10:27:45;;;;;;;;;;;;;;;6.00;90.07;98110.41;5043923;28;19917;-52
2023/01/16 10:30:17;;;;;;;;;;;;;;;6.05;89.90;98106.19;5042844;28;20373;-48
2023/01/16 10:32:50;;;;;;;;;;;;;;;6.11;89.99;98101.09;5044560;28;19917;-52
2023/01/16 10:35:47;;;;;;;;;;;;;;;6.15;90.40;98096.00;5027422;28;19916;-48
2023/01/16 10:38:15;;;;;;;;;;;;;;;6.23;90.73;98087.50;4995925;28;19916;-49
2023/01/16 10:40:41;;;;;;;;;;;;;;;6.28;90.70;98081.53;5046896;28;19916;-51
2023/01/16 10:51:31;;;;;;;;;;;;;;;6.42;89.60;98061.13;5037920;28;20487;-49
2023/01/16 10:53:58;;;;;;;;;;;;;;;6.42;89.63;98068.78;5034908;28;19924;-44
2023/01/16 10:56:24;;;;;;;;;;;;;;;6.42;89.70;98045.81;5024179;28;20055;-50
2023/01/16 10:58:49;;;;;;;;;;;;;;;6.44;89.81;98042.41;5039288;28;20042;-52
2023/01/16 11:01:16;;;;;;;;;;;;;;;6.46;89.19;98044.97;5044015;28;19995;-54
2023/01/16 11:03:49;;;;;;;;;;;;;;;6.47;88.68;98033.91;5044264;28;19924;-46
2023/01/16 11:06:17;;;;;;;;;;;;;;;6.45;88.79;98025.41;5043616;28;19929;-48
2023/01/16 11:08:43;;;;;;;;;;;;;;;6.47;88.86;98021.13;5043852;28;19924;-49
2023/01/16 11:18:27;;;;;;;;;;;;;;;6.50;88.64;98025.41;5040236;28;19940;-44
2023/01/16 11:19:27;;;;;;;;;;;;;;;6.50;87.72;98000.72;5042351;28;19967;-49
2023/01/16 11:22:10;;;;;;;;;;;;;;;6.52;87.77;97999.00;5043766;28;19963;-45
2023/01/16 11:24:38;;;;;;;;;;;;;;;6.53;88.06;97993.03;5042364;28;19925;-48
2023/01/16 11:27:12;;;;;;;;;;;;;;;6.54;87.75;97979.44;5040519;28;19925;-46
2023/01/16 11:29:38;;;;;;;;;;;;;;;6.56;87.40;97979.44;5041070;28;20420;-49
2023/01/16 11:32:06;;;;;;;;;;;;;;;6.55;86.66;97976.03;5046482;28;19916;-51
2023/01/16 11:34:31;;;;;;;;;;;;;;;6.55;86.89;97968.38;5044291;28;19921;-50
2023/01/16 11:36:58;;;;;;;;;;;;;;;6.58;87.02;97967.50;5034119;28;19982;-49
2023/01/16 11:39:25;;;;;;;;;;;;;;;6.58;86.80;97958.16;5038370;28;19932;-54
2023/01/16 11:41:52;;;;;;;;;;;;;;;6.60;86.41;97950.47;5043066;28;20007;-49
2023/01/16 11:47:01;;;;;;;;;;;;;;;6.63;86.54;97943.66;5043139;28;20384;-48
2023/01/16 11:49:28;;;;;;;;;;;;;;;6.65;86.34;97941.09;5043772;28;20008;-50
2023/01/16 11:51:54;;;;;;;;;;;;;;;6.66;86.26;97933.44;5042340;28;19916;-51
2023/01/16 11:54:24;;;;;;;;;;;;;;;6.68;86.40;97918.97;5040165;28;19943;-48
2023/01/16 11:56:53;;;;;;;;;;;;;;;6.71;86.49;97929.16;5044191;28;20006;-52
2023/01/16 11:59:18;;;;;;;;;;;;;;;6.71;86.42;97906.19;5041111;28;20417;-51
2023/01/16 12:04:31;;;;;;;;;;;;;;;6.75;85.70;97909.59;5039906;28;20211;-52
2023/01/16 12:06:57;;;;;;;;;;;;;;;6.75;86.21;97901.09;5042478;28;19924;-53
2023/01/16 12:09:30;;;;;;;;;;;;;;;6.77;86.34;97905.31;5044500;28;19917;-51
2023/01/16 12:11:55;;;;;;;;;;;;;;;6.79;86.41;97897.63;5035199;28;19928;-52
2023/01/16 12:14:24;;;;;;;;;;;;;;;6.80;86.16;97892.53;5039713;28;19917;-51
2023/01/16 12:17:07;;;;;;;;;;;;;;;6.81;86.09;97888.28;5042520;28;20274;-52
2023/01/16 12:19:33;;;;;;;;;;;;;;;6.81;86.32;97883.19;5042291;28;20278;-50
2023/01/16 12:22:06;;;;;;;;;;;;;;;6.79;86.36;97875.50;5042493;28;20011;-49
2023/01/16 12:24:44;;;;;;;;;;;;;;;6.81;86.79;97875.53;5044525;28;19917;-49
2023/01/16 12:27:22;;;;;;;;;;;;;;;6.81;86.80;97863.59;5045885;28;19923;-45
2023/01/16 12:30:08;;;;;;;;;;;;;;;6.83;87.14;97861.03;5048522;28;19925;-53
2023/01/16 12:32:42;;;;;;;;;;;;;;;6.83;87.34;97856.75;5048435;28;19928;-48
2023/01/16 12:35:23;;;;;;;;;;;;;;;6.86;87.58;97850.81;5048792;28;19921;-52
2023/01/16 12:37:48;;;;;;;;;;;;;;;6.87;87.90;97849.94;5047123;28;19921;-50
2023/01/16 12:40:20;;;;;;;;;;;;;;;6.89;88.19;97854.19;5046996;28;19924;-51
2023/01/16 12:45:47;;;;;;;;;;;;;;;6.94;88.46;97839.69;5037124;28;19923;-52
2023/01/16 12:48:12;;;;;;;;;;;;;;;6.97;88.30;97829.44;5048608;28;19929;-53
2023/01/16 12:50:43;;;;;;;;;;;;;;;6.98;88.50;97818.38;5049057;28;19925;-51
2023/01/16 12:53:09;;;;;;;;;;;;;;;7.01;88.23;97820.06;5048246;28;19999;-49
2023/01/16 12:55:50;;;;;;;;;;;;;;;7.01;88.30;97819.19;5049008;28;20054;-52
2023/01/16 12:58:26;;;;;;;;;;;;;;;7.04;88.12;97812.38;5045684;28;19916;-47
2023/01/16 13:00:57;;;;;;;;;;;;;;;7.06;88.25;97808.09;5048860;28;20007;-52
2023/01/16 13:03:29;;;;;;;;;;;;;;;7.08;87.91;97800.41;5048184;28;20334;-53
2023/01/16 13:05:57;;;;;;;;;;;;;;;7.09;88.19;97786.78;5049992;28;19913;-51
2023/01/16 13:08:29;;;;;;;;;;;;;;;7.12;88.09;97789.31;5045434;28;20400;-53
2023/01/16 13:13:52;;;;;;;;;;;;;;;7.17;87.38;97782.47;5047145;28;19983;-47
2023/01/16 13:16:25;;;;;;;;;;;;;;;7.20;87.49;97785.00;5048309;28;20427;-49
2023/01/16 13:18:50;;;;;;;;;;;;;;;7.20;87.45;97778.16;5023421;28;19924;-52
2023/01/16 13:21:21;;;;;;;;;;;;;;;7.23;87.83;97780.72;5046215;28;19925;-53
2023/01/16 13:23:55;;;;;;;;;;;;;;;7.26;87.60;97772.16;5048565;28;19912;-48
2023/01/16 13:26:23;;;;;;;;;;;;;;;7.29;87.17;97773.88;5046942;28;19920;-51
2023/01/16 13:28:48;;;;;;;;;;;;;;;7.30;87.67;97770.44;5047558;28;19920;-52
2023/01/16 13:31:27;;;;;;;;;;;;;;;7.32;87.87;97773.81;5047075;28;19920;-47
2023/01/16 13:33:56;;;;;;;;;;;;;;;7.32;87.46;97771.28;5046893;28;20005;-52
2023/01/16 13:36:36;;;;;;;;;;;;;;;7.32;87.17;97763.59;5046886;28;20364;-52
2023/01/16 13:39:01;;;;;;;;;;;;;;;7.32;87.28;97761.88;5046998;28;19939;-50
2023/01/16 13:41:42;;;;;;;;;;;;;;;7.35;87.42;97768.69;5045278;28;19917;-48
2023/01/16 13:47:02;;;;;;;;;;;;;;;7.34;87.21;97764.44;5044293;28;19969;-53
2023/01/16 13:49:28;;;;;;;;;;;;;;;7.34;86.85;97757.63;5043011;28;19923;-50
2023/01/16 13:51:53;;;;;;;;;;;;;;;7.34;87.21;97757.63;5037082;28;19928;-45
2023/01/16 13:54:21;;;;;;;;;;;;;;;7.34;87.36;97755.09;5034900;28;19932;-46
2023/01/16 13:56:57;;;;;;;;;;;;;;;7.34;87.19;97759.31;5048176;28;19920;-52
2023/01/16 13:59:41;;;;;;;;;;;;;;;7.33;87.31;97758.47;5046903;28;19966;-48
2023/01/16 14:02:25;;;;;;;;;;;;;;;7.34;87.53;97755.09;5039944;28;19917;-51